createdAt,value
2018-09-25T00:01:57.014Z,2.80
2018-09-25T00:07:03.593Z,4.30
2018-09-25T00:09:37.491Z,2.00
2018-09-25T00:12:11.021Z,2.93
2018-09-25T00:17:17.965Z,5.93
2018-09-25T00:27:30.698Z,2.47
2018-09-25T00:30:04.554Z,2.73
2018-09-25T00:32:37.885Z,2.70
2018-09-25T00:35:11.573Z,2.45
2018-09-25T00:37:45.026Z,2.60
2018-09-25T00:40:18.613Z,2.43
2018-09-25T00:42:52.179Z,3.50
2018-09-25T00:45:26.233Z,3.07
2018-09-25T00:47:59.643Z,2.37
2018-09-25T00:50:33.369Z,3.23
2018-09-25T00:53:07.222Z,3.27
2018-09-25T00:55:41.204Z,2.30
2018-09-25T00:58:15.586Z,2.87
2018-09-25T01:00:49.622Z,2.13
2018-09-25T01:03:23.310Z,3.10
2018-09-25T01:05:56.750Z,3.37
2018-09-25T01:08:30.587Z,2.37
2018-09-25T03:56:26.822Z,1.20
2018-09-25T03:59:00.602Z,1.53
2018-09-25T04:01:33.971Z,1.60
2018-09-25T04:09:13.857Z,3.17
2018-09-25T04:11:47.447Z,1.47
2018-09-25T04:14:21.196Z,1.40
2018-09-25T04:16:54.587Z,1.43
2018-09-25T04:19:28.398Z,1.67
2018-09-25T04:22:01.970Z,2.07
2018-09-25T04:24:35.049Z,1.20
2018-09-25T04:29:41.905Z,2.10
2018-09-25T04:32:15.625Z,1.67
2018-09-25T04:34:49.326Z,3.00
2018-09-25T04:37:22.627Z,2.40
2018-09-25T04:39:56.484Z,1.53
2018-09-25T04:42:29.946Z,1.50
2018-09-25T04:45:03.601Z,1.50
2018-09-25T04:47:36.593Z,2.40
2018-09-25T04:50:10.766Z,1.47
2018-09-25T04:52:44.434Z,2.27
2018-09-25T04:55:18.182Z,1.40
2018-09-25T04:57:51.623Z,1.70
2018-09-25T05:00:25.542Z,1.70
2018-09-25T05:02:59.030Z,2.00
2018-09-25T05:08:05.930Z,1.67
2018-09-25T05:10:39.738Z,1.87
2018-09-25T05:13:13.610Z,1.60
2018-09-25T05:15:47.398Z,1.47
2018-09-25T05:18:21.005Z,1.20
2018-09-25T05:26:00.886Z,1.70
2018-09-25T05:28:34.542Z,1.40
2018-09-25T05:31:08.385Z,1.70
2018-09-25T05:33:42.057Z,1.50
2018-09-25T05:36:16.343Z,1.63
2018-09-25T05:38:49.898Z,1.90
2018-09-25T05:41:23.628Z,2.60
2018-09-25T05:44:58.710Z,2.83
2018-09-25T05:47:32.597Z,1.80
2018-09-25T05:50:06.531Z,2.70
2018-09-25T05:52:40.195Z,3.07
2018-09-25T05:55:13.625Z,3.13
2018-09-25T05:57:47.490Z,2.10
2018-09-25T06:00:21.234Z,3.00
2018-09-25T06:02:54.670Z,2.40
2018-09-25T06:05:28.204Z,2.90
2018-09-25T06:08:01.722Z,2.90
2018-09-25T06:10:35.562Z,6.17
2018-09-25T06:13:09.374Z,2.80
2018-09-25T06:15:43.063Z,4.83
2018-09-25T06:20:50.319Z,4.40
2018-09-25T06:23:24.019Z,3.37
2018-09-25T06:31:03.883Z,2.60
2018-09-25T06:33:37.573Z,3.60
2018-09-25T06:36:11.326Z,3.00
2018-09-25T06:38:44.752Z,6.23
2018-09-25T06:41:18.305Z,3.77
2018-09-25T06:43:51.855Z,4.90
2018-09-25T06:46:25.477Z,5.60
2018-09-25T06:48:59.045Z,2.73
2018-09-25T06:56:38.833Z,3.87
2018-09-25T06:59:12.745Z,2.93
2018-09-25T07:01:47.010Z,3.05
2018-09-25T07:06:53.661Z,3.10
2018-09-25T07:09:27.374Z,2.90
2018-09-25T07:12:00.700Z,3.17
2018-09-25T07:14:34.343Z,4.60
2018-09-25T07:17:07.918Z,6.20
2018-09-25T07:19:41.630Z,3.47
2018-09-25T07:22:15.176Z,3.53
2018-09-25T07:24:48.709Z,3.13
2018-09-25T07:27:22.342Z,3.07
2018-09-25T07:29:55.844Z,3.93
2018-09-25T07:32:29.494Z,3.50
2018-09-25T07:35:03.041Z,3.77
2018-09-25T07:40:34.180Z,7.10
2018-09-25T07:43:07.598Z,5.87
2018-09-25T07:45:41.043Z,4.57
2018-09-25T07:50:48.397Z,6.63
2018-09-25T07:53:22.185Z,4.57
2018-09-25T07:55:55.620Z,2.73
2018-09-25T07:58:29.217Z,3.97
2018-09-25T08:01:02.774Z,2.50
2018-09-25T08:03:36.453Z,4.80
2018-09-25T08:06:10.165Z,3.23
2018-09-25T08:08:43.734Z,2.83
2018-09-25T08:11:17.449Z,4.50
2018-09-25T08:13:51.020Z,3.57
2018-09-25T08:18:57.726Z,3.10
2018-09-25T08:21:31.509Z,3.13
2018-09-25T08:24:05.062Z,3.10
2018-09-25T08:26:38.757Z,3.67
2018-09-25T08:29:12.420Z,3.47
2018-09-25T08:31:46.159Z,4.50
2018-09-25T08:34:19.618Z,2.53
2018-09-25T08:36:53.032Z,1.83
2018-09-25T08:41:59.916Z,2.37
2018-09-25T08:44:33.634Z,1.83
2018-09-25T08:47:07.203Z,3.40
2018-09-25T08:49:40.642Z,2.33
2018-09-25T08:52:14.306Z,4.83
2018-09-25T08:54:47.956Z,1.80
2018-09-25T08:57:21.631Z,2.37
2018-09-25T08:59:55.523Z,3.00
2018-09-25T09:02:28.888Z,4.17
2018-09-25T09:05:02.419Z,2.17
2018-09-25T09:07:35.957Z,2.57
2018-09-25T09:10:09.701Z,3.20
2018-09-25T09:12:43.421Z,2.63
2018-09-25T09:15:17.046Z,1.57
2018-09-25T09:20:24.013Z,2.37
2018-09-25T09:25:30.784Z,2.97
2018-09-25T09:28:04.505Z,3.27
2018-09-25T09:30:38.806Z,2.60
2018-09-25T09:33:12.629Z,1.50
2018-09-25T09:35:46.229Z,2.83
2018-09-25T09:38:19.721Z,2.07
2018-09-25T09:40:53.649Z,2.13
2018-09-25T09:43:27.542Z,3.17
2018-09-25T09:46:01.304Z,3.23
2018-09-25T09:48:34.705Z,2.17
2018-09-25T09:51:08.315Z,1.47
2018-09-25T09:53:41.674Z,1.10
2018-09-25T09:56:15.264Z,1.57
2018-09-25T09:58:48.609Z,3.13
2018-09-25T10:01:22.161Z,4.83
2018-09-25T10:03:55.618Z,1.80
2018-09-25T10:06:29.313Z,2.90
2018-09-25T10:09:02.975Z,2.27
2018-09-25T10:14:09.753Z,2.47
2018-09-25T10:16:43.610Z,2.23
2018-09-25T10:19:17.381Z,3.17
2018-09-25T10:21:50.878Z,1.70
2018-09-25T10:24:24.729Z,2.60
2018-09-25T10:26:58.445Z,2.53
2018-09-25T10:29:32.268Z,2.07
2018-09-25T10:32:05.874Z,2.03
2018-09-25T10:34:39.317Z,2.20
2018-09-25T10:37:12.797Z,3.80
2018-09-25T10:39:46.305Z,1.87
2018-09-25T10:42:20.302Z,3.60
2018-09-25T10:44:53.706Z,2.83
2018-09-25T10:47:27.327Z,4.33
2018-09-25T10:50:00.896Z,1.53
2018-09-25T10:52:34.766Z,1.50
2018-09-25T10:55:08.545Z,2.43
2018-09-25T10:57:41.949Z,2.20
2018-09-25T11:02:48.921Z,2.27
2018-09-25T11:05:22.634Z,2.37
2018-09-25T11:07:56.538Z,1.30
2018-09-25T11:10:30.443Z,3.10
2018-09-25T11:13:04.060Z,1.03
2018-09-25T11:15:37.772Z,1.70
2018-09-25T11:18:11.783Z,1.63
2018-09-25T11:20:45.532Z,4.70
2018-09-25T11:23:19.287Z,7.50
2018-09-25T11:25:53.318Z,2.17
2018-09-25T11:28:27.410Z,4.17
2018-09-25T11:31:01.082Z,2.50
2018-09-25T11:33:34.618Z,1.90
2018-09-25T11:36:08.314Z,3.67
2018-09-25T11:38:41.893Z,3.43
2018-09-25T11:43:48.748Z,2.73
2018-09-25T11:46:22.594Z,2.53
2018-09-25T11:48:56.308Z,2.97
2018-09-25T11:51:30.053Z,1.97
2018-09-25T11:54:03.753Z,3.60
2018-09-25T11:56:37.617Z,1.67
2018-09-25T11:59:11.486Z,5.37
2018-09-25T12:01:45.410Z,3.47
2018-09-25T12:04:19.237Z,1.60
2018-09-25T12:06:52.646Z,5.37
2018-09-25T12:09:26.528Z,1.57
2018-09-25T12:12:00.454Z,2.40
2018-09-25T12:14:33.906Z,2.77
2018-09-25T12:17:07.557Z,1.63
2018-09-25T12:19:41.670Z,3.30
2018-09-25T12:22:15.441Z,1.93
2018-09-25T12:24:49.434Z,3.73
2018-09-25T12:27:23.219Z,2.03
2018-09-25T12:29:57.195Z,2.80
2018-09-25T12:32:30.629Z,4.00
2018-09-25T12:35:04.469Z,1.90
2018-09-25T12:37:37.933Z,1.50
2018-09-25T12:42:44.833Z,1.27
2018-09-25T12:45:18.565Z,3.93
2018-09-25T12:47:52.075Z,3.40
2018-09-25T12:53:14.897Z,3.40
2018-09-25T12:55:48.473Z,3.03
2018-09-25T12:58:21.913Z,1.80
2018-09-25T13:00:55.574Z,1.57
2018-09-25T13:03:29.397Z,5.07
2018-09-25T13:06:03.199Z,4.10
2018-09-25T13:08:36.817Z,3.10
2018-09-25T13:11:10.585Z,4.10
2018-09-25T13:13:44.493Z,1.70
2018-09-25T13:16:18.352Z,2.13
2018-09-25T13:18:52.216Z,2.50
2018-09-25T13:21:25.956Z,2.00
2018-09-25T13:23:59.625Z,4.65
2018-09-25T13:26:33.606Z,1.63
2018-09-25T13:29:07.037Z,2.83
2018-09-25T13:34:13.981Z,1.93
2018-09-25T13:39:21.111Z,3.13
2018-09-25T13:41:54.785Z,1.83
2018-09-25T13:44:28.462Z,3.10
2018-09-25T13:47:02.522Z,1.73
2018-09-25T13:49:36.066Z,2.67
2018-09-25T13:54:43.072Z,3.70
2018-09-25T13:57:16.593Z,2.57
2018-09-25T13:59:50.377Z,5.70
2018-09-25T14:02:24.069Z,2.47
2018-09-25T14:04:57.705Z,2.87
2018-09-25T14:07:31.419Z,4.20
2018-09-25T14:10:05.038Z,2.20
2018-09-25T14:15:11.882Z,5.17
2018-09-25T14:17:45.643Z,1.40
2018-09-25T14:20:19.333Z,3.07
2018-09-25T14:22:52.878Z,3.27
2018-09-25T14:25:26.518Z,4.70
2018-09-25T14:28:00.383Z,1.70
2018-09-25T14:33:07.641Z,1.43
2018-09-25T14:35:41.566Z,3.43
2018-09-25T14:38:15.317Z,3.77
2018-09-25T14:40:48.981Z,5.30
2018-09-25T14:48:29.324Z,3.07
2018-09-25T14:51:03.041Z,4.93
2018-09-25T14:56:09.886Z,5.37
2018-09-25T14:58:43.590Z,8.43
2018-09-25T15:01:17.223Z,3.53
2018-09-25T15:03:50.770Z,6.97
2018-09-25T15:06:24.518Z,5.77
2018-09-25T15:08:58.199Z,2.07
2018-09-25T15:11:31.737Z,2.83
2018-09-25T15:14:06.064Z,3.17
2018-09-25T15:16:41.629Z,2.70
2018-09-25T15:19:15.358Z,3.53
2018-09-25T15:21:49.188Z,6.23
2018-09-25T15:26:56.335Z,2.57
2018-09-25T15:29:29.933Z,3.27
2018-09-25T15:32:03.500Z,2.73
2018-09-25T15:34:37.307Z,3.03
2018-09-25T15:37:10.916Z,2.47
2018-09-25T15:39:44.614Z,3.47
2018-09-25T15:42:18.486Z,1.70
2018-09-25T15:44:52.542Z,5.83
2018-09-25T15:47:26.223Z,2.70
2018-09-25T15:49:59.622Z,5.20
2018-09-25T15:52:33.493Z,1.30
2018-09-25T15:55:06.905Z,2.70
2018-09-25T15:57:40.494Z,1.37
2018-09-25T16:00:14.315Z,2.53
2018-09-25T16:02:47.670Z,4.30
2018-09-25T16:05:21.610Z,31.23
2018-09-25T16:07:55.539Z,106.93
2018-09-25T16:10:29.301Z,154.63
2018-09-25T16:13:02.818Z,147.40
2018-09-25T16:15:36.626Z,180.77
2018-09-25T16:18:10.062Z,188.97
2018-09-25T16:20:44.190Z,166.20
2018-09-25T16:23:18.582Z,135.83
2018-09-25T16:25:52.341Z,97.70
2018-09-25T16:28:25.925Z,80.87
2018-09-25T16:30:59.849Z,77.55
2018-09-25T16:33:33.548Z,61.77
2018-09-25T16:36:07.466Z,46.00
2018-09-25T16:38:41.369Z,42.73
2018-09-25T16:41:14.804Z,38.70
2018-09-25T16:43:48.445Z,28.40
2018-09-25T16:46:21.949Z,21.73
2018-09-25T16:54:02.041Z,16.33
2018-09-25T16:56:35.750Z,15.27
2018-09-25T16:59:09.442Z,12.13
2018-09-25T17:01:43.296Z,11.50
2018-09-25T17:04:16.794Z,7.97
2018-09-25T17:06:50.585Z,12.07
2018-09-25T17:09:24.302Z,5.93
2018-09-25T17:11:57.813Z,9.90
2018-09-25T17:14:31.629Z,6.00
2018-09-25T17:17:05.308Z,7.70
2018-09-25T17:19:38.718Z,4.93
2018-09-25T17:22:12.564Z,6.33
2018-09-25T17:24:46.382Z,6.93
2018-09-25T17:27:19.790Z,4.53
2018-09-25T17:29:53.421Z,3.80
2018-09-25T17:32:27.310Z,2.90
2018-09-25T17:35:00.920Z,6.40
2018-09-25T17:37:35.399Z,6.10
2018-09-25T17:40:09.238Z,4.43
2018-09-25T17:42:42.714Z,4.70
2018-09-25T17:45:16.453Z,3.63
2018-09-25T17:47:50.218Z,4.57
2018-09-25T17:50:23.694Z,3.57
2018-09-25T17:52:57.578Z,6.77
2018-09-25T17:55:31.238Z,5.03
2018-09-25T17:58:04.705Z,5.53
2018-09-25T18:00:38.453Z,7.87
2018-09-25T18:03:12.605Z,5.07
2018-09-25T18:05:46.329Z,4.20
2018-09-25T18:08:20.030Z,7.43
2018-09-25T18:10:53.682Z,4.80
2018-09-25T18:13:28.677Z,6.13
2018-09-25T18:16:02.477Z,5.87
2018-09-25T18:18:36.581Z,4.73
2018-09-25T18:21:10.389Z,8.47
2018-09-25T18:23:43.845Z,5.97
2018-09-25T18:26:17.403Z,7.90
2018-09-25T18:28:51.216Z,5.23
2018-09-25T18:31:25.160Z,5.47
2018-09-25T18:33:59.047Z,4.63
2018-09-25T18:36:32.655Z,5.93
2018-09-25T18:39:06.462Z,4.63
2018-09-25T18:41:40.411Z,6.47
2018-09-25T18:44:14.184Z,3.27
2018-09-25T18:46:47.859Z,5.10
2018-09-25T18:49:21.521Z,4.87
2018-09-25T18:51:55.712Z,5.20
2018-09-25T18:54:29.301Z,5.63
2018-09-25T18:57:02.729Z,4.80
2018-09-25T18:59:36.524Z,4.43
2018-09-25T19:02:10.163Z,3.10
2018-09-25T19:04:43.698Z,4.90
2018-09-25T19:07:17.461Z,6.53
2018-09-25T19:09:50.881Z,6.83
2018-09-25T19:12:24.583Z,4.97
2018-09-25T19:14:58.291Z,3.00
2018-09-25T19:17:31.816Z,5.03
2018-09-25T19:20:05.526Z,4.33
2018-09-25T19:22:39.615Z,4.30
2018-09-25T19:25:12.962Z,3.23
2018-09-25T19:27:46.666Z,7.20
2018-09-25T19:30:19.970Z,2.93
2018-09-25T19:32:53.690Z,4.60
2018-09-25T19:35:27.456Z,3.20
2018-09-25T19:40:37.782Z,2.83
2018-09-25T19:43:11.486Z,4.60
2018-09-25T19:45:45.420Z,3.97
2018-09-25T19:48:19.051Z,5.40
2018-09-25T19:50:52.804Z,2.50
2018-09-25T19:53:26.430Z,3.50
2018-09-25T19:55:59.940Z,2.77
2018-09-25T20:01:06.881Z,3.13
2018-09-25T20:03:40.584Z,5.27
2018-09-25T20:06:14.034Z,3.63
2018-09-25T20:10:27.681Z,3.92
2018-09-25T20:13:01.643Z,2.83
2018-09-25T20:15:35.468Z,2.53
2018-09-25T20:18:09.164Z,3.60
2018-09-25T20:20:42.618Z,3.47
2018-09-25T20:23:16.643Z,2.63
2018-09-25T20:25:50.292Z,4.07
2018-09-25T20:28:23.921Z,7.70
2018-09-25T20:30:57.574Z,3.07
2018-09-25T20:33:31.313Z,2.37
2018-09-25T20:36:30.526Z,3.62
2018-09-25T20:39:04.422Z,3.33
2018-09-25T20:41:38.058Z,2.97
2018-09-25T20:44:11.857Z,3.83
2018-09-25T20:46:45.601Z,5.70
2018-09-25T20:49:19.434Z,2.67
2018-09-25T20:51:52.953Z,2.47
2018-09-25T20:54:26.610Z,2.30
2018-09-25T20:57:00.070Z,2.87
2018-09-25T20:59:33.813Z,5.17
2018-09-25T21:02:07.485Z,5.40
2018-09-25T21:04:41.171Z,2.93
2018-09-25T21:07:14.711Z,3.87
2018-09-25T21:09:48.626Z,3.60
2018-09-25T21:12:22.345Z,3.30
2018-09-25T21:14:55.830Z,2.60
2018-09-25T21:17:29.566Z,3.33
2018-09-25T21:20:03.353Z,2.60
2018-09-25T21:22:36.767Z,3.63
2018-09-25T21:25:10.521Z,3.77
2018-09-25T21:27:44.289Z,2.98
2018-09-25T21:30:17.735Z,3.23
2018-09-25T21:32:51.586Z,4.03
2018-09-25T21:35:25.757Z,4.77
2018-09-25T21:37:59.577Z,2.47
2018-09-25T21:40:33.217Z,2.03
2018-09-25T21:43:06.682Z,3.87
2018-09-25T21:45:40.429Z,4.65
2018-09-25T21:48:14.165Z,3.30
2018-09-25T21:50:47.737Z,4.67
2018-09-25T21:53:21.478Z,2.60
2018-09-25T21:55:55.396Z,3.77
2018-09-25T21:58:29.069Z,2.73
2018-09-25T22:01:02.844Z,3.13
2018-09-25T22:03:36.543Z,4.50
2018-09-25T22:08:56.689Z,3.20
2018-09-25T22:11:30.677Z,3.00
2018-09-25T22:16:05.714Z,2.35
2018-09-25T22:18:39.301Z,2.97
2018-09-25T22:21:12.806Z,2.17
2018-09-25T22:23:46.623Z,2.20
2018-09-25T22:26:20.753Z,2.80
2018-09-25T22:28:54.507Z,3.83
2018-09-25T22:31:27.974Z,3.43
2018-09-25T22:39:07.873Z,3.50
2018-09-25T22:41:41.637Z,4.47
2018-09-25T22:44:15.315Z,3.17
2018-09-25T22:46:48.741Z,2.77
2018-09-25T22:49:22.358Z,3.73
2018-09-25T22:51:55.961Z,3.03
2018-09-25T22:57:02.614Z,2.90
2018-09-25T22:59:36.297Z,3.40
2018-09-25T23:02:09.719Z,3.47
2018-09-25T23:04:43.345Z,2.27
2018-09-25T23:07:17.297Z,2.27
2018-09-25T23:09:50.638Z,2.47
2018-09-25T23:12:24.581Z,2.20
2018-09-25T23:14:58.433Z,2.33
2018-09-25T23:17:32.194Z,3.00
2018-09-25T23:20:05.867Z,2.07
2018-09-25T23:22:39.602Z,2.30
2018-09-25T23:25:13.600Z,1.90
2018-09-25T23:27:47.421Z,2.10
2018-09-25T23:30:21.394Z,2.47
2018-09-25T23:32:55.301Z,4.17
2018-09-25T23:35:29.122Z,2.20
2018-09-25T23:38:02.769Z,2.57
2018-09-25T23:40:37.402Z,2.67
2018-09-25T23:43:12.633Z,2.17
2018-09-25T23:45:46.553Z,4.13
2018-09-25T23:48:19.301Z,1.90
2018-09-25T23:50:57.501Z,2.20
2018-09-25T23:53:32.881Z,1.87
2018-09-25T23:56:06.628Z,2.57
2018-09-25T23:58:39.334Z,3.80
